sensor_id;sensor_type;location;lat;lon;timestamp;pressure;altitude;pressure_sealevel;temperature;humidity
56719;BME280;42597;40.636;0.278;2023-09-19T00:00:46;97453.59;;;24.58;77.76
56719;BME280;42597;40.636;0.278;2023-09-19T00:03:14;97454.22;;;24.50;76.57
56719;BME280;42597;40.636;0.278;2023-09-19T00:05:40;97456.19;;;24.49;77.42
56719;BME280;42597;40.636;0.278;2023-09-19T00:08:09;97451.81;;;24.32;72.92
56719;BME280;42597;40.636;0.278;2023-09-19T00:10:35;97456.19;;;24.49;74.77
56719;BME280;42597;40.636;0.278;2023-09-19T00:13:02;97465.78;;;24.08;77.12
56719;BME280;42597;40.636;0.278;2023-09-19T00:15:37;97459.97;;;24.55;77.75
56719;BME280;42597;40.636;0.278;2023-09-19T00:18:04;97474.94;;;24.58;78.00
56719;BME280;42597;40.636;0.278;2023-09-19T00:20:35;97482.00;;;24.59;76.89
56719;BME280;42597;40.636;0.278;2023-09-19T00:23:01;97487.59;;;24.55;78.32
56719;BME280;42597;40.636;0.278;2023-09-19T00:25:35;97486.41;;;24.56;78.28
56719;BME280;42597;40.636;0.278;2023-09-19T00:28:01;97485.19;;;24.57;78.40
56719;BME280;42597;40.636;0.278;2023-09-19T00:30:27;97489.59;;;24.55;77.86
56719;BME280;42597;40.636;0.278;2023-09-19T00:32:52;97490.72;;;24.57;78.02
56719;BME280;42597;40.636;0.278;2023-09-19T00:35:18;97489.97;;;24.57;78.05
56719;BME280;42597;40.636;0.278;2023-09-19T00:37:49;97483.75;;;24.53;78.29
56719;BME280;42597;40.636;0.278;2023-09-19T00:40:15;97480.53;;;24.54;77.94
56719;BME280;42597;40.636;0.278;2023-09-19T00:42:45;97475.88;;;24.51;77.77
56719;BME280;42597;40.636;0.278;2023-09-19T00:45:13;97478.63;;;24.51;77.68
56719;BME280;42597;40.636;0.278;2023-09-19T00:47:41;97478.53;;;24.55;76.83
56719;BME280;42597;40.636;0.278;2023-09-19T00:50:08;97481.38;;;24.51;77.45
56719;BME280;42597;40.636;0.278;2023-09-19T00:52:36;97475.88;;;24.51;77.15
56719;BME280;42597;40.636;0.278;2023-09-19T00:55:08;97478.28;;;24.49;77.01
56719;BME280;42597;40.636;0.278;2023-09-19T00:57:34;97472.25;;;24.54;74.98
56719;BME280;42597;40.636;0.278;2023-09-19T01:00:00;97477.06;;;24.50;75.77
56719;BME280;42597;40.636;0.278;2023-09-19T01:02:31;97477.94;;;24.47;75.93
56719;BME280;42597;40.636;0.278;2023-09-19T01:04:57;97477.44;;;24.52;75.48
56719;BME280;42597;40.636;0.278;2023-09-19T01:07:23;97480.69;;;24.47;75.12
56719;BME280;42597;40.636;0.278;2023-09-19T01:09:49;97480.69;;;24.47;75.02
56719;BME280;42597;40.636;0.278;2023-09-19T01:12:21;97477.44;;;24.52;74.36
56719;BME280;42597;40.636;0.278;2023-09-19T01:15:06;97471.03;;;24.55;74.04
56719;BME280;42597;40.636;0.278;2023-09-19T01:26:11;97481.53;;;24.44;74.51
56719;BME280;42597;40.636;0.278;2023-09-19T01:29:36;97489.50;;;24.42;74.45
56719;BME280;42597;40.636;0.278;2023-09-19T01:32:05;97478.78;;;24.44;73.74
56719;BME280;42597;40.636;0.278;2023-09-19T01:34:48;97481.22;;;24.58;72.43
56719;BME280;42597;40.636;0.278;2023-09-19T01:37:17;97473.94;;;24.48;73.38
56719;BME280;42597;40.636;0.278;2023-09-19T01:39:51;97477.44;;;24.52;73.63
56719;BME280;42597;40.636;0.278;2023-09-19T01:47:17;97472.84;;;24.46;73.37
56719;BME280;42597;40.636;0.278;2023-09-19T01:52:31;97464.66;;;24.22;71.99
56719;BME280;42597;40.636;0.278;2023-09-19T01:55:06;97466.72;;;24.38;71.97
56719;BME280;42597;40.636;0.278;2023-09-19T01:57:39;97467.41;;;24.42;73.09
56719;BME280;42597;40.636;0.278;2023-09-19T02:00:08;97468.63;;;24.41;73.40
56719;BME280;42597;40.636;0.278;2023-09-19T02:02:38;97473.41;;;24.37;72.35
56719;BME280;42597;40.636;0.278;2023-09-19T02:05:05;97473.00;;;24.38;73.38
56719;BME280;42597;40.636;0.278;2023-09-19T02:07:31;97478.44;;;24.42;73.14
56719;BME280;42597;40.636;0.278;2023-09-19T02:10:00;97472.22;;;24.38;72.91
56719;BME280;42597;40.636;0.278;2023-09-19T02:12:26;97478.53;;;24.38;72.54
56719;BME280;42597;40.636;0.278;2023-09-19T02:14:52;97481.22;;;24.42;72.92
56719;BME280;42597;40.636;0.278;2023-09-19T02:17:18;97472.06;;;24.45;73.21
56719;BME280;42597;40.636;0.278;2023-09-19T02:19:44;97480.13;;;24.36;72.21
56719;BME280;42597;40.636;0.278;2023-09-19T02:22:10;97469.06;;;24.36;70.85
56719;BME280;42597;40.636;0.278;2023-09-19T02:24:38;97470.09;;;24.46;72.99
56719;BME280;42597;40.636;0.278;2023-09-19T02:27:04;97478.44;;;24.42;72.62
56719;BME280;42597;40.636;0.278;2023-09-19T02:29:31;97470.66;;;24.37;72.94
56719;BME280;42597;40.636;0.278;2023-09-19T02:31:56;97473.91;;;24.32;72.71
56719;BME280;42597;40.636;0.278;2023-09-19T02:34:22;97473.13;;;24.31;72.65
56719;BME280;42597;40.636;0.278;2023-09-19T02:36:48;97464.91;;;24.28;72.29
56719;BME280;42597;40.636;0.278;2023-09-19T02:39:14;97468.31;;;24.35;72.81
56719;BME280;42597;40.636;0.278;2023-09-19T02:41:40;97466.84;;;24.31;72.70
56719;BME280;42597;40.636;0.278;2023-09-19T02:44:07;97460.78;;;24.36;72.73
56719;BME280;42597;40.636;0.278;2023-09-19T02:46:34;97460.75;;;24.40;71.87
56719;BME280;42597;40.636;0.278;2023-09-19T02:49:02;97470.84;;;23.50;71.06
56719;BME280;42597;40.636;0.278;2023-09-19T02:51:30;97463.66;;;23.56;75.66
56719;BME280;42597;40.636;0.278;2023-09-19T02:53:56;97461.09;;;24.05;73.19
56719;BME280;42597;40.636;0.278;2023-09-19T02:56:22;97453.69;;;24.19;73.48
56719;BME280;42597;40.636;0.278;2023-09-19T02:58:48;97452.00;;;24.25;72.40
56719;BME280;42597;40.636;0.278;2023-09-19T03:01:13;97444.03;;;24.27;70.45
56719;BME280;42597;40.636;0.278;2023-09-19T03:03:43;97437.13;;;24.19;72.85
56719;BME280;42597;40.636;0.278;2023-09-19T03:06:10;97431.97;;;24.21;71.72
56719;BME280;42597;40.636;0.278;2023-09-19T03:08:38;97426.78;;;24.23;73.03
56719;BME280;42597;40.636;0.278;2023-09-19T03:11:13;97429.38;;;24.13;73.71
56719;BME280;42597;40.636;0.278;2023-09-19T03:13:40;97437.91;;;24.19;72.81
56719;BME280;42597;40.636;0.278;2023-09-19T03:16:07;97434.22;;;24.26;72.47
56719;BME280;42597;40.636;0.278;2023-09-19T03:18:36;97434.22;;;24.26;72.46
56719;BME280;42597;40.636;0.278;2023-09-19T03:21:02;97436.97;;;24.26;73.11
56719;BME280;42597;40.636;0.278;2023-09-19T03:23:28;97431.09;;;24.24;73.42
56719;BME280;42597;40.636;0.278;2023-09-19T03:25:55;97425.94;;;24.26;72.91
56719;BME280;42597;40.636;0.278;2023-09-19T03:28:22;97425.41;;;24.31;71.96
56719;BME280;42597;40.636;0.278;2023-09-19T03:31:17;97423.69;;;24.21;73.71
56719;BME280;42597;40.636;0.278;2023-09-19T03:33:43;97423.31;;;24.19;73.77
56719;BME280;42597;40.636;0.278;2023-09-19T03:36:08;97428.31;;;24.24;72.71
56719;BME280;42597;40.636;0.278;2023-09-19T03:38:34;97429.22;;;24.21;73.32
56719;BME280;42597;40.636;0.278;2023-09-19T03:41:01;97431.59;;;24.19;72.50
56719;BME280;42597;40.636;0.278;2023-09-19T03:43:26;97432.78;;;24.01;73.25
56719;BME280;42597;40.636;0.278;2023-09-19T03:45:53;97434.75;;;23.84;73.65
56719;BME280;42597;40.636;0.278;2023-09-19T03:48:20;97431.75;;;24.11;73.20
56719;BME280;42597;40.636;0.278;2023-09-19T03:50:47;97426.94;;;24.16;72.75
56719;BME280;42597;40.636;0.278;2023-09-19T03:53:13;97426.97;;;24.32;71.43
56719;BME280;42597;40.636;0.278;2023-09-19T03:55:38;97422.69;;;23.35;62.87
56719;BME280;42597;40.636;0.278;2023-09-19T03:58:05;97434.47;;;23.15;69.31
56719;BME280;42597;40.636;0.278;2023-09-19T04:00:31;97421.19;;;22.63;65.12
56719;BME280;42597;40.636;0.278;2023-09-19T04:02:56;97423.88;;;23.34;71.17
56719;BME280;42597;40.636;0.278;2023-09-19T04:05:23;97419.72;;;23.26;65.20
56719;BME280;42597;40.636;0.278;2023-09-19T04:07:49;97416.38;;;23.94;73.00
56719;BME280;42597;40.636;0.278;2023-09-19T04:10:15;97416.44;;;23.91;71.50
56719;BME280;42597;40.636;0.278;2023-09-19T04:12:53;97420.66;;;23.79;72.19
56719;BME280;42597;40.636;0.278;2023-09-19T04:15:20;97417.88;;;23.59;72.45
56719;BME280;42597;40.636;0.278;2023-09-19T04:17:48;97416.53;;;22.60;64.22
56719;BME280;42597;40.636;0.278;2023-09-19T04:20:13;97418.03;;;23.32;73.58
56719;BME280;42597;40.636;0.278;2023-09-19T04:22:39;97416.72;;;22.97;74.54
56719;BME280;42597;40.636;0.278;2023-09-19T04:25:05;97412.72;;;23.41;64.78
56719;BME280;42597;40.636;0.278;2023-09-19T04:27:32;97413.41;;;23.05;74.54
56719;BME280;42597;40.636;0.278;2023-09-19T04:29:58;97417.50;;;22.47;64.65
56719;BME280;42597;40.636;0.278;2023-09-19T04:32:28;97409.59;;;23.39;75.60
56719;BME280;42597;40.636;0.278;2023-09-19T04:34:54;97398.34;;;23.89;74.34
56719;BME280;42597;40.636;0.278;2023-09-19T04:37:20;97410.72;;;24.01;73.91
56719;BME280;42597;40.636;0.278;2023-09-19T04:39:47;97412.94;;;24.06;73.50
56719;BME280;42597;40.636;0.278;2023-09-19T04:42:13;97414.00;;;23.56;65.04
56719;BME280;42597;40.636;0.278;2023-09-19T04:44:39;97402.34;;;23.69;74.76
56719;BME280;42597;40.636;0.278;2023-09-19T04:47:05;97408.75;;;23.82;74.59
56719;BME280;42597;40.636;0.278;2023-09-19T04:49:31;97407.41;;;22.87;66.20
56719;BME280;42597;40.636;0.278;2023-09-19T04:51:57;97404.97;;;23.36;75.03
56719;BME280;42597;40.636;0.278;2023-09-19T04:54:22;97404.38;;;23.64;74.75
56719;BME280;42597;40.636;0.278;2023-09-19T04:56:48;97407.75;;;23.92;73.38
56719;BME280;42597;40.636;0.278;2023-09-19T04:59:13;97409.59;;;23.79;73.99
56719;BME280;42597;40.636;0.278;2023-09-19T05:01:40;97413.28;;;23.92;73.41
56719;BME280;42597;40.636;0.278;2023-09-19T05:04:05;97417.44;;;23.01;70.61
56719;BME280;42597;40.636;0.278;2023-09-19T05:06:31;97417.81;;;23.62;75.00
56719;BME280;42597;40.636;0.278;2023-09-19T05:09:00;97412.03;;;23.77;74.33
56719;BME280;42597;40.636;0.278;2023-09-19T05:11:26;97415.81;;;23.83;72.32
56719;BME280;42597;40.636;0.278;2023-09-19T05:13:52;97416.44;;;23.91;73.85
56719;BME280;42597;40.636;0.278;2023-09-19T05:16:18;97415.50;;;23.81;73.83
56719;BME280;42597;40.636;0.278;2023-09-19T05:18:44;97413.63;;;23.94;73.51
56719;BME280;42597;40.636;0.278;2023-09-19T05:21:10;97418.28;;;23.97;73.57
56719;BME280;42597;40.636;0.278;2023-09-19T05:23:35;97421.75;;;24.01;73.17
56719;BME280;42597;40.636;0.278;2023-09-19T05:26:02;97417.84;;;23.99;73.45
56719;BME280;42597;40.636;0.278;2023-09-19T05:28:30;97417.44;;;24.00;73.55
56719;BME280;42597;40.636;0.278;2023-09-19T05:31:02;97423.38;;;23.99;73.54
56719;BME280;42597;40.636;0.278;2023-09-19T05:33:28;97429.66;;;23.99;73.97
56719;BME280;42597;40.636;0.278;2023-09-19T05:35:56;97443.06;;;24.01;73.83
56719;BME280;42597;40.636;0.278;2023-09-19T05:38:21;97437.09;;;24.02;73.27
56719;BME280;42597;40.636;0.278;2023-09-19T05:40:48;97440.00;;;23.55;71.34
56719;BME280;42597;40.636;0.278;2023-09-19T05:43:13;97440.94;;;23.49;66.87
56719;BME280;42597;40.636;0.278;2023-09-19T05:45:42;97437.75;;;23.90;73.44
56719;BME280;42597;40.636;0.278;2023-09-19T05:48:10;97433.63;;;23.98;72.35
56719;BME280;42597;40.636;0.278;2023-09-19T05:50:37;97443.97;;;23.94;71.95
56719;BME280;42597;40.636;0.278;2023-09-19T05:53:02;97449.50;;;23.94;72.55
56719;BME280;42597;40.636;0.278;2023-09-19T05:55:29;97436.41;;;23.98;72.56
56719;BME280;42597;40.636;0.278;2023-09-19T05:57:55;97448.28;;;23.95;72.46
56719;BME280;42597;40.636;0.278;2023-09-19T06:00:23;97445.38;;;24.02;71.50
56719;BME280;42597;40.636;0.278;2023-09-19T06:02:52;97441.88;;;23.82;70.36
56719;BME280;42597;40.636;0.278;2023-09-19T06:05:19;97450.09;;;23.66;73.43
56719;BME280;42597;40.636;0.278;2023-09-19T06:07:45;97446.94;;;23.63;73.46
56719;BME280;42597;40.636;0.278;2023-09-19T06:10:13;97446.41;;;23.52;73.66
56719;BME280;42597;40.636;0.278;2023-09-19T06:12:41;97452.47;;;23.24;73.13
56719;BME280;42597;40.636;0.278;2023-09-19T06:15:09;97450.91;;;22.99;73.72
56719;BME280;42597;40.636;0.278;2023-09-19T06:17:43;97450.16;;;23.19;73.28
56719;BME280;42597;40.636;0.278;2023-09-19T06:20:08;97451.88;;;23.12;70.27
56719;BME280;42597;40.636;0.278;2023-09-19T06:22:44;97457.34;;;23.76;72.53
56719;BME280;42597;40.636;0.278;2023-09-19T06:25:12;97463.09;;;23.85;72.58
56719;BME280;42597;40.636;0.278;2023-09-19T06:27:41;97461.91;;;23.86;72.70
56719;BME280;42597;40.636;0.278;2023-09-19T06:30:08;97465.34;;;23.90;72.44
56719;BME280;42597;40.636;0.278;2023-09-19T06:32:34;97466.91;;;23.91;72.66
56719;BME280;42597;40.636;0.278;2023-09-19T06:35:00;97471.56;;;23.94;72.49
56719;BME280;42597;40.636;0.278;2023-09-19T06:37:29;97482.28;;;23.92;72.81
56719;BME280;42597;40.636;0.278;2023-09-19T06:39:55;97474.34;;;23.94;72.43
56719;BME280;42597;40.636;0.278;2023-09-19T06:42:21;97480.00;;;23.87;72.30
56719;BME280;42597;40.636;0.278;2023-09-19T06:44:48;97472.78;;;23.93;72.74
56719;BME280;42597;40.636;0.278;2023-09-19T06:47:14;97475.25;;;23.87;71.93
56719;BME280;42597;40.636;0.278;2023-09-19T06:49:41;97486.03;;;23.82;71.94
56719;BME280;42597;40.636;0.278;2023-09-19T06:52:09;97484.69;;;23.90;71.51
56719;BME280;42597;40.636;0.278;2023-09-19T06:54:35;97477.44;;;23.56;65.19
56719;BME280;42597;40.636;0.278;2023-09-19T06:57:01;97485.31;;;23.78;72.27
56719;BME280;42597;40.636;0.278;2023-09-19T06:59:27;97484.34;;;23.88;72.04
56719;BME280;42597;40.636;0.278;2023-09-19T07:01:52;97486.16;;;23.75;72.18
56719;BME280;42597;40.636;0.278;2023-09-19T07:04:18;97478.47;;;23.66;73.08
56719;BME280;42597;40.636;0.278;2023-09-19T07:06:49;97476.84;;;23.25;72.00
56719;BME280;42597;40.636;0.278;2023-09-19T07:09:16;97472.13;;;23.46;71.65
56719;BME280;42597;40.636;0.278;2023-09-19T07:11:42;97488.88;;;23.11;70.03
56719;BME280;42597;40.636;0.278;2023-09-19T07:14:08;97492.72;;;22.94;67.85
56719;BME280;42597;40.636;0.278;2023-09-19T07:16:40;97489.59;;;23.59;73.32
56719;BME280;42597;40.636;0.278;2023-09-19T07:19:08;97483.78;;;23.77;72.14
56719;BME280;42597;40.636;0.278;2023-09-19T07:21:33;97480.44;;;23.66;72.77
56719;BME280;42597;40.636;0.278;2023-09-19T07:24:01;97484.16;;;23.95;68.95
56719;BME280;42597;40.636;0.278;2023-09-19T07:26:28;97495.06;;;23.82;71.91
56719;BME280;42597;40.636;0.278;2023-09-19T07:28:54;97502.06;;;23.87;70.70
56719;BME280;42597;40.636;0.278;2023-09-19T07:31:20;97506.56;;;23.81;71.54
56719;BME280;42597;40.636;0.278;2023-09-19T07:33:48;97509.44;;;23.94;70.63
56719;BME280;42597;40.636;0.278;2023-09-19T07:36:13;97515.94;;;23.83;67.33
56719;BME280;42597;40.636;0.278;2023-09-19T07:38:40;97512.97;;;23.74;72.69
56719;BME280;42597;40.636;0.278;2023-09-19T07:41:07;97521.81;;;24.05;71.84
56719;BME280;42597;40.636;0.278;2023-09-19T07:43:35;97511.13;;;24.07;69.26
56719;BME280;42597;40.636;0.278;2023-09-19T07:46:05;97513.19;;;24.03;71.87
56719;BME280;42597;40.636;0.278;2023-09-19T07:48:33;97520.88;;;24.12;70.09
56719;BME280;42597;40.636;0.278;2023-09-19T07:51:04;97525.78;;;24.04;72.07
56719;BME280;42597;40.636;0.278;2023-09-19T07:53:30;97527.03;;;24.20;71.06
56719;BME280;42597;40.636;0.278;2023-09-19T07:56:03;97516.25;;;23.89;71.43
56719;BME280;42597;40.636;0.278;2023-09-19T07:58:29;97532.56;;;23.80;70.25
56719;BME280;42597;40.636;0.278;2023-09-19T08:00:54;97524.78;;;23.75;71.94
56719;BME280;42597;40.636;0.278;2023-09-19T08:03:20;97515.47;;;24.08;70.44
56719;BME280;42597;40.636;0.278;2023-09-19T08:05:46;97527.34;;;23.66;65.64
56719;BME280;42597;40.636;0.278;2023-09-19T08:08:12;97525.94;;;23.97;71.11
56719;BME280;42597;40.636;0.278;2023-09-19T08:10:39;97540.50;;;23.78;65.08
56719;BME280;42597;40.636;0.278;2023-09-19T08:13:07;97537.69;;;23.81;68.21
56719;BME280;42597;40.636;0.278;2023-09-19T08:15:43;97546.31;;;24.03;71.59
56719;BME280;42597;40.636;0.278;2023-09-19T08:18:09;97554.50;;;23.87;64.31
56719;BME280;42597;40.636;0.278;2023-09-19T08:20:37;97546.47;;;23.96;72.16
56719;BME280;42597;40.636;0.278;2023-09-19T08:23:03;97548.22;;;24.06;71.53
56719;BME280;42597;40.636;0.278;2023-09-19T08:25:29;97551.69;;;24.10;71.93
56719;BME280;42597;40.636;0.278;2023-09-19T08:27:55;97553.75;;;23.63;71.76
56719;BME280;42597;40.636;0.278;2023-09-19T08:30:25;97560.13;;;23.60;73.95
56719;BME280;42597;40.636;0.278;2023-09-19T08:33:01;97567.19;;;23.84;74.13
56719;BME280;42597;40.636;0.278;2023-09-19T08:35:30;97577.03;;;23.62;74.45
56719;BME280;42597;40.636;0.278;2023-09-19T08:37:55;97579.44;;;22.86;77.30
56719;BME280;42597;40.636;0.278;2023-09-19T08:40:22;97575.53;;;23.10;77.13
56719;BME280;42597;40.636;0.278;2023-09-19T08:42:52;97582.59;;;23.58;74.74
56719;BME280;42597;40.636;0.278;2023-09-19T08:45:20;97581.78;;;23.61;73.33
56719;BME280;42597;40.636;0.278;2023-09-19T08:50:33;97592.47;;;23.36;74.81
56719;BME280;42597;40.636;0.278;2023-09-19T08:53:14;97592.06;;;22.83;75.77
56719;BME280;42597;40.636;0.278;2023-09-19T08:55:41;97602.44;;;23.03;76.56
56719;BME280;42597;40.636;0.278;2023-09-19T08:58:10;97599.88;;;23.62;74.00
56719;BME280;42597;40.636;0.278;2023-09-19T09:00:36;97608.34;;;23.52;75.46
56719;BME280;42597;40.636;0.278;2023-09-19T09:03:03;97616.44;;;23.62;75.26
56719;BME280;42597;40.636;0.278;2023-09-19T09:05:32;97619.44;;;23.25;77.58
56719;BME280;42597;40.636;0.278;2023-09-19T09:07:58;97615.34;;;23.33;76.37
56719;BME280;42597;40.636;0.278;2023-09-19T09:10:25;97619.69;;;23.07;74.45
56719;BME280;42597;40.636;0.278;2023-09-19T09:12:51;97633.09;;;23.55;75.01
56719;BME280;42597;40.636;0.278;2023-09-19T09:15:19;97643.38;;;23.04;74.32
56719;BME280;42597;40.636;0.278;2023-09-19T09:17:47;97639.41;;;23.32;76.47
56719;BME280;42597;40.636;0.278;2023-09-19T09:20:14;97628.88;;;23.00;76.52
56719;BME280;42597;40.636;0.278;2023-09-19T09:22:50;97624.00;;;22.81;76.87
56719;BME280;42597;40.636;0.278;2023-09-19T09:25:16;97625.31;;;23.50;76.06
56719;BME280;42597;40.636;0.278;2023-09-19T09:27:43;97616.78;;;23.68;75.13
56719;BME280;42597;40.636;0.278;2023-09-19T09:30:20;97622.22;;;23.92;73.94
56719;BME280;42597;40.636;0.278;2023-09-19T09:33:11;97619.81;;;23.74;74.55
56719;BME280;42597;40.636;0.278;2023-09-19T09:35:55;97614.13;;;24.04;73.99
56719;BME280;42597;40.636;0.278;2023-09-19T09:38:44;97617.78;;;23.78;75.29
56719;BME280;42597;40.636;0.278;2023-09-19T09:41:11;97619.28;;;24.02;74.30
56719;BME280;42597;40.636;0.278;2023-09-19T09:43:41;97624.53;;;24.17;73.45
56719;BME280;42597;40.636;0.278;2023-09-19T09:46:18;97622.19;;;24.15;73.29
56719;BME280;42597;40.636;0.278;2023-09-19T09:48:47;97628.00;;;24.21;73.26
56719;BME280;42597;40.636;0.278;2023-09-19T09:51:33;97623.91;;;24.29;73.07
56719;BME280;42597;40.636;0.278;2023-09-19T09:54:15;97622.31;;;24.28;72.01
56719;BME280;42597;40.636;0.278;2023-09-19T09:56:58;97626.81;;;24.22;72.95
56719;BME280;42597;40.636;0.278;2023-09-19T09:59:52;97623.50;;;24.50;71.65
56719;BME280;42597;40.636;0.278;2023-09-19T10:02:27;97623.41;;;24.14;72.79
56719;BME280;42597;40.636;0.278;2023-09-19T10:05:16;97624.19;;;24.14;72.55
56719;BME280;42597;40.636;0.278;2023-09-19T10:08:10;97617.53;;;23.45;67.15
56719;BME280;42597;40.636;0.278;2023-09-19T10:10:39;97611.78;;;23.36;64.52
56719;BME280;42597;40.636;0.278;2023-09-19T10:13:12;97608.41;;;23.72;66.47
56719;BME280;42597;40.636;0.278;2023-09-19T10:15:39;97605.88;;;23.81;65.02
56719;BME280;42597;40.636;0.278;2023-09-19T10:18:11;97598.56;;;23.71;68.04
56719;BME280;42597;40.636;0.278;2023-09-19T10:20:44;97593.91;;;23.44;64.95
56719;BME280;42597;40.636;0.278;2023-09-19T10:23:12;97583.00;;;23.37;65.67
56719;BME280;42597;40.636;0.278;2023-09-19T10:25:43;97570.09;;;23.97;71.84
56719;BME280;42597;40.636;0.278;2023-09-19T10:28:11;97575.53;;;23.81;64.49
56719;BME280;42597;40.636;0.278;2023-09-19T10:30:42;97574.59;;;23.87;66.59
56719;BME280;42597;40.636;0.278;2023-09-19T10:33:14;97574.44;;;23.51;62.65
56719;BME280;42597;40.636;0.278;2023-09-19T10:35:43;97572.72;;;23.37;65.42
56719;BME280;42597;40.636;0.278;2023-09-19T10:38:18;97586.75;;;23.47;65.63
56719;BME280;42597;40.636;0.278;2023-09-19T10:40:44;97590.53;;;23.56;64.67
56719;BME280;42597;40.636;0.278;2023-09-19T10:43:16;97588.06;;;23.15;66.21
56719;BME280;42597;40.636;0.278;2023-09-19T10:45:49;97582.00;;;23.47;66.40
56719;BME280;42597;40.636;0.278;2023-09-19T10:48:18;97582.72;;;23.75;68.06
56719;BME280;42597;40.636;0.278;2023-09-19T10:50:46;97583.16;;;23.73;68.62
56719;BME280;42597;40.636;0.278;2023-09-19T10:53:16;97581.06;;;23.57;68.84
56719;BME280;42597;40.636;0.278;2023-09-19T10:55:51;97583.38;;;23.59;67.48
56719;BME280;42597;40.636;0.278;2023-09-19T10:58:29;97581.47;;;23.99;70.55
56719;BME280;42597;40.636;0.278;2023-09-19T11:01:00;97574.06;;;23.96;68.44
56719;BME280;42597;40.636;0.278;2023-09-19T11:03:38;97575.44;;;23.41;69.99
56719;BME280;42597;40.636;0.278;2023-09-19T11:06:14;97569.97;;;23.61;72.37
56719;BME280;42597;40.636;0.278;2023-09-19T11:11:45;97568.63;;;24.12;71.43
56719;BME280;42597;40.636;0.278;2023-09-19T11:30:42;97562.38;;;23.88;76.74
56719;BME280;42597;40.636;0.278;2023-09-19T11:33:25;97558.09;;;24.24;75.00
56719;BME280;42597;40.636;0.278;2023-09-19T11:36:15;97559.44;;;23.76;77.25
56719;BME280;42597;40.636;0.278;2023-09-19T11:43:48;97562.22;;;23.96;77.07
56719;BME280;42597;40.636;0.278;2023-09-19T11:46:16;97561.03;;;23.77;77.95
56719;BME280;42597;40.636;0.278;2023-09-19T11:48:51;97563.78;;;23.53;78.91
56719;BME280;42597;40.636;0.278;2023-09-19T11:51:22;97556.22;;;23.81;78.56
56719;BME280;42597;40.636;0.278;2023-09-19T11:53:58;97556.22;;;23.81;79.97
56719;BME280;42597;40.636;0.278;2023-09-19T11:56:28;97554.28;;;24.37;77.06
56719;BME280;42597;40.636;0.278;2023-09-19T11:58:57;97556.09;;;23.88;78.37
56719;BME280;42597;40.636;0.278;2023-09-19T12:01:32;97553.34;;;23.64;81.54
56719;BME280;42597;40.636;0.278;2023-09-19T12:04:03;97538.94;;;24.36;77.84
56719;BME280;42597;40.636;0.278;2023-09-19T12:06:30;97539.31;;;23.99;78.18
56719;BME280;42597;40.636;0.278;2023-09-19T12:08:58;97532.50;;;24.03;80.18
56719;BME280;42597;40.636;0.278;2023-09-19T12:11:30;97543.28;;;23.98;81.86
56719;BME280;42597;40.636;0.278;2023-09-19T12:13:59;97532.56;;;23.80;81.74
56719;BME280;42597;40.636;0.278;2023-09-19T12:16:26;97527.69;;;24.07;80.06
56719;BME280;42597;40.636;0.278;2023-09-19T12:18:56;97522.72;;;24.38;77.05
56719;BME280;42597;40.636;0.278;2023-09-19T12:21:30;97520.22;;;24.44;80.11
56719;BME280;42597;40.636;0.278;2023-09-19T12:24:13;97516.53;;;24.67;80.30
56719;BME280;42597;40.636;0.278;2023-09-19T12:29:11;97511.78;;;24.68;79.89
56719;BME280;42597;40.636;0.278;2023-09-19T12:31:54;97515.06;;;24.62;79.18
56719;BME280;42597;40.636;0.278;2023-09-19T12:34:32;97499.78;;;24.58;78.27
56719;BME280;42597;40.636;0.278;2023-09-19T12:39:41;97490.28;;;24.23;83.58
56719;BME280;42597;40.636;0.278;2023-09-19T12:42:10;97491.44;;;24.61;84.38
56719;BME280;42597;40.636;0.278;2023-09-19T12:44:37;97488.66;;;24.45;84.09
56719;BME280;42597;40.636;0.278;2023-09-19T12:47:17;97495.16;;;24.35;82.77
56719;BME280;42597;40.636;0.278;2023-09-19T12:52:49;97481.00;;;24.33;82.72
56719;BME280;42597;40.636;0.278;2023-09-19T13:00:40;97461.66;;;24.33;82.01
56719;BME280;42597;40.636;0.278;2023-09-19T13:05:56;97474.06;;;24.61;80.83
56719;BME280;42597;40.636;0.278;2023-09-19T13:08:27;97463.28;;;24.14;84.86
56719;BME280;42597;40.636;0.278;2023-09-19T13:11:14;97454.81;;;24.41;82.97
56719;BME280;42597;40.636;0.278;2023-09-19T13:13:50;97455.25;;;24.20;85.34
56719;BME280;42597;40.636;0.278;2023-09-19T13:16:20;97454.47;;;24.55;84.53
56719;BME280;42597;40.636;0.278;2023-09-19T13:18:53;97448.25;;;24.51;84.65
56719;BME280;42597;40.636;0.278;2023-09-19T13:21:34;97452.84;;;24.22;84.94
56719;BME280;42597;40.636;0.278;2023-09-19T13:24:22;97445.38;;;24.38;82.59
56719;BME280;42597;40.636;0.278;2023-09-19T13:26:48;97437.88;;;24.55;82.01
56719;BME280;42597;40.636;0.278;2023-09-19T13:29:15;97442.53;;;24.91;82.25
56719;BME280;42597;40.636;0.278;2023-09-19T13:31:49;97440.38;;;24.82;81.82
56719;BME280;42597;40.636;0.278;2023-09-19T13:34:16;97430.06;;;24.99;78.39
56719;BME280;42597;40.636;0.278;2023-09-19T13:36:43;97434.09;;;24.49;82.72
56719;BME280;42597;40.636;0.278;2023-09-19T13:39:09;97419.06;;;24.50;82.32
56719;BME280;42597;40.636;0.278;2023-09-19T13:41:37;97414.41;;;24.47;82.63
56719;BME280;42597;40.636;0.278;2023-09-19T13:44:03;97397.66;;;24.54;83.15
56719;BME280;42597;40.636;0.278;2023-09-19T13:46:30;97399.66;;;24.01;85.58
56719;BME280;42597;40.636;0.278;2023-09-19T13:48:58;97394.91;;;24.02;86.14
56719;BME280;42597;40.636;0.278;2023-09-19T13:51:26;97407.84;;;23.88;87.57
56719;BME280;42597;40.636;0.278;2023-09-19T13:53:51;97391.31;;;24.21;85.70
56719;BME280;42597;40.636;0.278;2023-09-19T13:56:17;97398.13;;;24.00;86.96
56719;BME280;42597;40.636;0.278;2023-09-19T13:58:43;97400.00;;;24.03;87.22
56719;BME280;42597;40.636;0.278;2023-09-19T14:01:09;97400.13;;;23.80;88.76
56719;BME280;42597;40.636;0.278;2023-09-19T14:03:41;97390.03;;;24.09;86.69
56719;BME280;42597;40.636;0.278;2023-09-19T14:06:16;97384.88;;;23.92;87.75
56719;BME280;42597;40.636;0.278;2023-09-19T14:08:42;97379.69;;;24.62;83.54
56719;BME280;42597;40.636;0.278;2023-09-19T14:11:08;97395.66;;;24.38;85.87